Time;durP1;ratioP1;P1;durP2;ratioP2;P2;SDS_P1;SDS_P2;PMS_P1;PMS_P2;Temp;Humidity;BMP_temperature;BMP_pressure;BME280_temperature;BME280_humidity;BME280_pressure;Samples;Min_cycle;Max_cycle;Signal;HPM_P1;HPM_P2
2023/08/28 00:01:03;;;;;;;15.50;11.38;;;24.10;99.90;;;;;;4993430;28;20022;-52
2023/08/28 00:03:29;;;;;;;16.70;10.95;;;24.10;99.90;;;;;;4994135;28;20042;-56
2023/08/28 00:05:55;;;;;;;12.27;10.23;;;;;;;;;;4994257;28;20038;-54
2023/08/28 00:08:21;;;;;;;13.52;9.93;;;24.10;99.90;;;;;;4994389;28;20037;-57
2023/08/28 00:10:47;;;;;;;12.35;9.63;;;24.30;99.90;;;;;;4993969;28;20405;-54
2023/08/28 00:13:12;;;;;;;14.30;10.15;;;24.20;99.90;;;;;;4992037;28;20045;-54
2023/08/28 00:15:38;;;;;;;14.85;10.68;;;24.30;99.90;;;;;;4994041;28;20022;-55
2023/08/28 00:18:04;;;;;;;11.85;9.93;;;;;;;;;;4994261;28;20113;-56
2023/08/28 00:20:31;;;;;;;15.48;9.98;;;;;;;;;;4960012;28;20495;-52
2023/08/28 00:22:56;;;;;;;12.88;9.18;;;24.00;99.90;;;;;;4993891;28;20105;-55
2023/08/28 00:25:22;;;;;;;11.93;9.38;;;23.70;99.90;;;;;;4993837;28;20073;-56
2023/08/28 00:27:48;;;;;;;18.50;10.13;;;;;;;;;;4994122;28;20026;-54
2023/08/28 00:30:14;;;;;;;14.35;10.38;;;23.40;99.90;;;;;;4991927;28;20390;-54
2023/08/28 00:32:39;;;;;;;17.42;10.52;;;23.60;99.90;;;;;;4993929;28;20118;-56
2023/08/28 00:35:06;;;;;;;12.27;9.35;;;23.30;99.90;;;;;;4993677;28;20478;-54
2023/08/28 00:37:32;;;;;;;12.93;10.27;;;23.40;99.90;;;;;;4993894;28;20030;-55
2023/08/28 00:39:57;;;;;;;14.77;10.85;;;23.30;99.90;;;;;;4993626;28;20073;-55
2023/08/28 00:42:24;;;;;;;11.77;9.88;;;23.10;99.90;;;;;;4993253;28;20406;-55
2023/08/28 00:44:49;;;;;;;13.98;10.32;;;23.10;99.90;;;;;;4993703;28;20033;-54
2023/08/28 00:47:16;;;;;;;14.68;9.82;;;23.00;99.90;;;;;;4993624;28;20026;-55
2023/08/28 00:49:42;;;;;;;13.10;10.68;;;;;;;;;;4993688;28;20023;-53
2023/08/28 00:52:09;;;;;;;14.75;9.68;;;22.90;99.90;;;;;;4993548;28;20030;-54
2023/08/28 00:54:35;;;;;;;13.82;9.00;;;23.20;99.90;;;;;;4993492;28;20026;-56
2023/08/28 00:57:02;;;;;;;12.38;9.15;;;23.10;99.90;;;;;;4993573;28;20037;-52
2023/08/28 00:59:28;;;;;;;11.85;9.35;;;22.90;99.90;;;;;;4959557;28;20045;-52
2023/08/28 01:01:54;;;;;;;10.32;8.57;;;22.90;99.90;;;;;;4993507;28;20027;-55
2023/08/28 01:04:20;;;;;;;13.75;9.02;;;22.90;99.90;;;;;;4993361;28;20430;-54
2023/08/28 01:07:21;;;;;;;12.88;9.57;;;23.00;99.90;;;;;;4993522;28;20030;-55
2023/08/28 01:09:57;;;;;;;13.70;9.37;;;23.10;99.90;;;;;;4993423;28;20037;-55
2023/08/28 01:12:52;;;;;;;11.30;8.93;;;23.20;99.90;;;;;;4994722;28;20268;-55
2023/08/28 01:15:23;;;;;;;13.35;8.52;;;23.20;99.90;;;;;;4997025;28;20028;-55
2023/08/28 01:17:58;;;;;;;13.40;9.20;;;23.30;99.90;;;;;;4997175;28;20105;-54
2023/08/28 01:20:26;;;;;;;13.68;10.10;;;23.30;99.90;;;;;;4996860;28;20038;-55
2023/08/28 01:23:16;;;;;;;13.85;9.68;;;23.20;99.90;;;;;;4997166;28;20030;-53
2023/08/28 01:25:42;;;;;;;11.85;9.70;;;23.00;99.90;;;;;;4996850;28;20030;-56
2023/08/28 01:28:09;;;;;;;9.93;8.93;;;23.20;99.90;;;;;;4996752;28;20025;-54
2023/08/28 01:30:34;;;;;;;13.07;9.48;;;23.40;99.90;;;;;;4997086;28;20033;-56
2023/08/28 01:33:00;;;;;;;13.45;9.65;;;23.50;99.90;;;;;;4997245;28;20026;-54
2023/08/28 01:35:29;;;;;;;11.77;9.68;;;;;;;;;;4962680;28;20103;-52
2023/08/28 01:37:55;;;;;;;13.45;9.85;;;;;;;;;;4996583;28;20125;-56
2023/08/28 01:40:24;;;;;;;11.35;9.48;;;;;;;;;;4996851;28;20105;-53
2023/08/28 01:42:50;;;;;;;14.65;9.63;;;24.00;99.90;;;;;;4996407;28;20050;-54
2023/08/28 01:45:18;;;;;;;14.90;10.05;;;;;;;;;;4996438;28;20030;-57
2023/08/28 01:47:44;;;;;;;11.52;9.82;;;24.20;99.90;;;;;;4996479;28;20058;-57
2023/08/28 01:50:10;;;;;;;14.93;9.70;;;24.20;99.90;;;;;;4996587;28;20022;-55
2023/08/28 01:52:35;;;;;;;12.45;9.73;;;24.10;99.90;;;;;;4962491;28;20101;-54
2023/08/28 01:55:01;;;;;;;11.30;9.43;;;24.20;99.90;;;;;;4996730;28;20065;-56
2023/08/28 01:57:27;;;;;;;11.10;9.07;;;24.20;99.90;;;;;;4996156;28;20114;-56
2023/08/28 01:59:53;;;;;;;13.23;9.95;;;24.20;99.90;;;;;;4962179;28;20421;-56
2023/08/28 02:02:19;;;;;;;14.60;9.52;;;24.00;99.90;;;;;;4996352;28;20084;-54
2023/08/28 02:04:44;;;;;;;13.23;9.85;;;23.90;99.90;;;;;;4996403;28;20030;-52
2023/08/28 02:07:10;;;;;;;15.93;10.10;;;24.00;99.90;;;;;;4962222;28;20038;-56
2023/08/28 02:09:36;;;;;;;14.30;10.00;;;24.00;99.90;;;;;;4962239;28;20126;-54
2023/08/28 02:12:02;;;;;;;12.50;9.77;;;24.00;99.90;;;;;;4945890;28;20046;-54
2023/08/28 02:14:27;;;;;;;13.73;9.02;;;23.90;99.90;;;;;;4961790;28;20415;-55
2023/08/28 02:16:53;;;;;;;15.40;10.35;;;23.50;99.90;;;;;;4962101;28;20038;-55
2023/08/28 02:19:19;;;;;;;13.30;9.98;;;23.40;99.90;;;;;;4995632;28;20045;-55
2023/08/28 02:21:44;;;;;;;12.45;10.10;;;23.30;99.90;;;;;;4962072;28;20088;-54
2023/08/28 02:24:10;;;;;;;10.98;9.68;;;;;;;;;;4993441;28;20092;-54
2023/08/28 02:26:37;;;;;;;12.45;10.15;;;;;;;;;;4995687;28;20034;-56
2023/08/28 02:29:03;;;;;;;11.63;9.27;;;22.70;99.90;;;;;;4995813;28;20030;-54
2023/08/28 02:31:29;;;;;;;12.30;9.63;;;22.70;99.90;;;;;;4995547;28;20105;-55
2023/08/28 02:33:54;;;;;;;12.77;9.68;;;22.40;99.90;;;;;;4961702;28;20467;-54
2023/08/28 02:36:20;;;;;;;11.35;9.90;;;22.50;99.90;;;;;;4995737;28;20026;-52
2023/08/28 02:38:46;;;;;;;12.15;9.70;;;22.50;99.90;;;;;;4995540;28;20069;-55
2023/08/28 02:41:11;;;;;;;16.35;11.93;;;22.50;99.90;;;;;;4995502;28;20040;-57
2023/08/28 02:43:40;;;;;;;16.13;12.43;;;22.80;99.90;;;;;;4957956;28;20082;-56
2023/08/28 02:46:06;;;;;;;15.77;10.70;;;22.80;99.90;;;;;;4976558;28;20053;-55
2023/08/28 02:48:32;;;;;;;12.43;10.02;;;22.70;99.90;;;;;;4976279;28;20459;-56
2023/08/28 02:50:57;;;;;;;13.93;11.20;;;23.00;99.90;;;;;;4974146;28;20039;-52
2023/08/28 02:53:24;;;;;;;13.95;10.95;;;;;;;;;;4975909;28;20077;-57
2023/08/28 02:56:09;;;;;;;16.02;10.25;;;23.10;99.90;;;;;;4975829;28;20018;-54
2023/08/28 02:58:35;;;;;;;17.33;10.00;;;23.00;99.90;;;;;;4976043;28;20034;-56
2023/08/28 03:01:02;;;;;;;14.13;10.15;;;22.80;99.90;;;;;;4974061;28;20446;-58
2023/08/28 03:03:28;;;;;;;13.65;10.13;;;22.70;99.90;;;;;;4975455;28;20043;-56
2023/08/28 03:05:53;;;;;;;18.85;10.18;;;22.80;99.90;;;;;;4973975;28;20031;-57
2023/08/28 03:08:21;;;;;;;11.82;10.32;;;22.70;99.90;;;;;;4975744;28;20058;-53
2023/08/28 03:10:46;;;;;;;14.60;9.93;;;22.60;99.90;;;;;;4975591;28;20042;-57
2023/08/28 03:13:12;;;;;;;13.48;10.60;;;22.40;99.90;;;;;;4976039;28;20052;-56
2023/08/28 03:15:38;;;;;;;19.23;13.70;;;22.60;99.90;;;;;;4975218;28;20054;-56
2023/08/28 03:18:04;;;;;;;12.13;10.07;;;22.80;99.90;;;;;;4975458;28;20041;-53
2023/08/28 03:20:32;;;;;;;13.18;11.02;;;22.60;99.90;;;;;;4975797;28;20485;-56
2023/08/28 03:22:58;;;;;;;15.07;11.77;;;22.40;99.90;;;;;;4975324;28;20053;-54
2023/08/28 03:25:24;;;;;;;15.32;11.27;;;22.10;99.90;;;;;;4975119;28;20526;-55
2023/08/28 03:27:49;;;;;;;14.73;10.55;;;22.20;99.90;;;;;;4975533;28;20057;-54
2023/08/28 03:30:15;;;;;;;16.52;10.52;;;22.30;99.90;;;;;;4973387;28;20031;-57
2023/08/28 03:32:41;;;;;;;15.93;10.82;;;22.30;99.90;;;;;;4973399;28;20038;-53
2023/08/28 03:35:07;;;;;;;13.77;10.35;;;22.20;99.90;;;;;;4974848;28;20442;-55
2023/08/28 03:37:33;;;;;;;12.10;10.73;;;22.40;99.90;;;;;;4973038;28;20031;-53
2023/08/28 03:39:58;;;;;;;13.88;10.85;;;22.20;99.90;;;;;;4974756;28;20053;-52
2023/08/28 03:42:24;;;;;;;17.23;11.50;;;22.10;99.90;;;;;;4980884;28;20058;-55
2023/08/28 03:44:50;;;;;;;12.50;10.48;;;22.20;99.90;;;;;;4994437;28;20084;-55
2023/08/28 03:47:15;;;;;;;16.48;11.02;;;22.50;99.90;;;;;;4994571;28;20026;-55
2023/08/28 03:49:41;;;;;;;15.75;10.60;;;22.60;99.90;;;;;;4960201;28;20034;-56
2023/08/28 03:52:07;;;;;;;12.70;10.82;;;22.80;99.90;;;;;;4960186;28;20125;-56
2023/08/28 03:54:32;;;;;;;14.00;10.63;;;22.60;99.90;;;;;;4994162;28;20030;-56
2023/08/28 03:56:58;;;;;;;12.63;11.10;;;22.40;99.90;;;;;;4994054;28;20030;-55
2023/08/28 03:59:24;;;;;;;13.82;9.15;;;22.30;99.90;;;;;;4994354;28;20038;-54
2023/08/28 04:01:51;;;;;;;19.17;11.10;;;22.50;99.90;;;;;;4992531;28;20042;-54
2023/08/28 04:04:16;;;;;;;17.55;10.93;;;22.90;99.90;;;;;;4994126;28;20080;-56
2023/08/28 04:06:43;;;;;;;17.00;10.60;;;;;;;;;;4993856;28;20121;-56
2023/08/28 04:09:08;;;;;;;15.43;9.88;;;23.20;99.90;;;;;;4994020;28;20041;-54
2023/08/28 04:11:34;;;;;;;13.02;9.95;;;23.30;99.90;;;;;;4994076;28;20026;-57
2023/08/28 04:14:00;;;;;;;19.92;10.88;;;23.40;99.90;;;;;;4993996;28;20080;-54
2023/08/28 04:19:01;;;;;;;17.33;10.65;;;23.60;99.90;;;;;;5150202;22;20514;-54
2023/08/28 04:21:27;;;;;;;14.57;10.60;;;23.70;99.90;;;;;;5053527;28;20025;-58
2023/08/28 04:23:53;;;;;;;13.85;11.68;;;23.70;99.90;;;;;;5002520;28;20047;-52
2023/08/28 04:26:18;;;;;;;16.00;10.40;;;23.60;99.90;;;;;;5052983;28;20025;-58
2023/08/28 04:28:45;;;;;;;15.20;11.60;;;23.70;99.90;;;;;;5053391;28;20028;-56
2023/08/28 04:31:13;;;;;;;14.52;10.02;;;23.80;99.90;;;;;;5053178;28;20029;-54
2023/08/28 04:33:39;;;;;;;12.43;10.65;;;23.80;99.90;;;;;;5053427;28;20111;-51
2023/08/28 04:36:05;;;;;;;14.18;11.02;;;23.90;99.90;;;;;;5018278;28;20591;-54
2023/08/28 04:38:31;;;;;;;13.98;11.05;;;23.70;99.90;;;;;;5052817;28;20079;-53
2023/08/28 04:40:57;;;;;;;15.82;10.23;;;23.80;99.90;;;;;;5053489;28;20025;-55
2023/08/28 04:43:22;;;;;;;13.95;11.30;;;23.80;99.90;;;;;;5053176;28;20059;-53
2023/08/28 04:45:51;;;;;;;13.77;10.55;;;23.70;99.90;;;;;;5052947;28;20029;-51
2023/08/28 04:48:18;;;;;;;14.55;10.95;;;23.60;99.90;;;;;;5055947;28;20099;-55
2023/08/28 04:50:44;;;;;;;14.82;10.88;;;23.60;99.90;;;;;;5057263;28;20025;-54
2023/08/28 04:53:10;;;;;;;14.02;11.05;;;23.70;99.90;;;;;;5057488;28;20597;-53
2023/08/28 04:55:38;;;;;;;14.55;11.32;;;24.00;99.90;;;;;;5057228;28;20491;-54
2023/08/28 04:58:05;;;;;;;16.00;11.52;;;23.80;99.90;;;;;;5056828;28;20106;-53
2023/08/28 05:00:31;;;;;;;17.52;11.65;;;23.50;99.90;;;;;;5056645;28;20470;-53
2023/08/28 05:02:56;;;;;;;13.98;11.40;;;23.40;99.90;;;;;;5056721;28;20029;-53
2023/08/28 05:05:22;;;;;;;16.30;11.20;;;23.30;99.90;;;;;;5056747;28;20113;-52
2023/08/28 05:07:48;;;;;;;14.27;11.63;;;23.20;99.90;;;;;;5057274;28;20033;-54
2023/08/28 05:10:14;;;;;;;12.98;11.60;;;23.10;99.90;;;;;;5056489;28;20025;-56
2023/08/28 05:12:39;;;;;;;16.17;10.48;;;23.40;99.90;;;;;;5056455;28;20029;-56
2023/08/28 05:15:05;;;;;;;14.73;11.35;;;23.70;99.90;;;;;;5021634;28;20048;-52
2023/08/28 05:17:31;;;;;;;14.55;10.98;;;23.90;99.90;;;;;;5056292;28;20057;-51
2023/08/28 05:19:57;;;;;;;18.05;10.98;;;24.20;99.90;;;;;;5021478;28;20052;-52
2023/08/28 05:22:22;;;;;;;14.30;11.40;;;24.40;99.90;;;;;;5056279;28;20025;-56
2023/08/28 05:24:49;;;;;;;17.83;11.48;;;;;;;;;;5056778;28;20025;-51
2023/08/28 05:27:14;;;;;;;18.38;12.05;;;24.90;99.90;;;;;;5005164;28;20040;-55
2023/08/28 05:29:40;;;;;;;17.38;10.90;;;24.90;99.90;;;;;;5037562;28;20037;-54
2023/08/28 05:32:06;;;;;;;14.20;9.98;;;25.00;99.90;;;;;;5056369;28;20028;-52
2023/08/28 05:34:32;;;;;;;20.20;11.13;;;25.00;99.90;;;;;;5056009;28;20029;-52
2023/08/28 05:36:58;;;;;;;14.70;10.73;;;24.70;99.90;;;;;;5056269;28;20134;-57
2023/08/28 05:39:23;;;;;;;13.82;11.10;;;24.80;99.90;;;;;;5056223;28;20123;-54
2023/08/28 05:41:49;;;;;;;12.43;11.15;;;24.90;99.90;;;;;;5056060;28;20025;-53
2023/08/28 05:44:15;;;;;;;13.07;11.70;;;24.80;99.90;;;;;;5021390;28;20439;-54
2023/08/28 05:46:41;;;;;;;15.07;11.30;;;24.80;99.90;;;;;;5055999;28;20043;-53
2023/08/28 05:49:07;;;;;;;12.85;11.45;;;24.80;99.90;;;;;;5004760;28;20041;-55
2023/08/28 05:51:33;;;;;;;11.98;10.73;;;24.90;99.90;;;;;;5055698;28;20029;-54
2023/08/28 05:53:59;;;;;;;12.88;10.85;;;;;;;;;;5055738;28;20057;-54
2023/08/28 05:56:25;;;;;;;13.15;10.77;;;25.40;99.90;;;;;;5056217;28;20029;-52
2023/08/28 05:58:51;;;;;;;11.10;9.48;;;25.50;99.90;;;;;;5054923;28;20434;-51
2023/08/28 06:01:17;;;;;;;10.60;9.25;;;;;;;;;;5055583;28;20021;-53
2023/08/28 06:03:42;;;;;;;12.68;10.05;;;25.70;99.90;;;;;;5055579;28;20115;-54
2023/08/28 06:06:09;;;;;;;13.23;8.77;;;25.60;99.90;;;;;;5055547;28;20142;-53
2023/08/28 06:08:36;;;;;;;14.75;9.50;;;;;;;;;;5055988;28;20017;-55
2023/08/28 06:11:01;;;;;;;13.07;9.38;;;26.00;99.90;;;;;;5055437;28;20032;-54
2023/08/28 06:13:28;;;;;;;12.23;8.85;;;25.80;99.90;;;;;;5055448;28;20025;-53
2023/08/28 06:15:54;;;;;;;12.00;9.40;;;26.10;99.90;;;;;;5055448;28;20032;-54
2023/08/28 06:18:20;;;;;;;16.40;9.93;;;26.10;99.90;;;;;;5055190;28;20124;-54
2023/08/28 06:20:45;;;;;;;11.07;9.07;;;26.40;99.90;;;;;;5055817;28;20065;-55
2023/08/28 06:23:11;;;;;;;14.20;9.55;;;26.70;99.90;;;;;;5055293;28;20057;-54
2023/08/28 06:25:37;;;;;;;11.02;8.70;;;26.90;99.90;;;;;;5055379;28;20075;-56
2023/08/28 06:28:03;;;;;;;9.90;8.48;;;27.00;99.90;;;;;;5055337;28;20475;-52
2023/08/28 06:30:28;;;;;;;16.27;9.15;;;27.30;99.90;;;;;;5055635;28;20107;-54
2023/08/28 06:32:55;;;;;;;15.05;9.38;;;;;;;;;;5055351;28;20099;-54
2023/08/28 06:35:20;;;;;;;17.02;9.25;;;27.80;99.90;;;;;;5054915;28;20059;-52
2023/08/28 06:37:47;;;;;;;14.23;9.43;;;27.70;99.90;;;;;;5055413;28;20032;-53
2023/08/28 06:40:13;;;;;;;15.45;9.90;;;;;;;;;;5055199;28;20044;-55
2023/08/28 06:42:39;;;;;;;10.02;9.00;;;;;;;;;;5020077;28;20103;-56
2023/08/28 06:45:06;;;;;;;12.65;9.10;;;28.30;99.90;;;;;;5055055;28;20052;-54
2023/08/28 06:47:31;;;;;;;14.93;8.68;;;28.40;99.90;;;;;;5054698;28;20472;-54
2023/08/28 06:49:58;;;;;;;11.88;8.38;;;;;;;;;;5055100;28;20036;-54
2023/08/28 06:52:23;;;;;;;13.38;8.60;;;28.90;99.90;;;;;;5003276;28;20037;-53
2023/08/28 06:54:49;;;;;;;17.08;8.23;;;28.90;99.90;;;;;;5054498;28;20500;-56
2023/08/28 06:57:15;;;;;;;10.15;8.10;;;29.10;99.90;;;;;;5054466;28;20025;-54
2023/08/28 06:59:41;;;;;;;13.63;8.43;;;;;;;;;;5054560;28;20498;-55
2023/08/28 07:02:07;;;;;;;10.80;8.15;;;;;;;;;;5054749;28;20035;-56
2023/08/28 07:04:32;;;;;;;14.82;8.35;;;29.60;99.90;;;;;;5019724;28;20117;-56
2023/08/28 07:06:58;;;;;;;15.43;9.10;;;29.60;99.90;;;;;;5054159;28;20112;-53
2023/08/28 07:09:24;;;;;;;12.32;8.48;;;29.60;99.90;;;;;;5019408;28;20040;-53
2023/08/28 07:11:49;;;;;;;13.63;7.93;;;29.80;99.90;;;;;;5019283;28;20044;-52
2023/08/28 07:14:15;;;;;;;10.45;7.38;;;;;;;;;;5054577;28;20503;-52
2023/08/28 07:16:41;;;;;;;10.50;7.97;;;29.90;99.90;;;;;;5054019;28;20021;-52
2023/08/28 07:19:07;;;;;;;12.23;7.85;;;30.00;99.90;;;;;;5054384;28;20447;-55
2023/08/28 07:21:33;;;;;;;10.77;7.78;;;30.30;99.90;;;;;;5054207;28;20056;-54
2023/08/28 07:23:59;;;;;;;12.50;7.57;;;30.40;99.90;;;;;;5019328;28;20037;-56
2023/08/28 07:26:24;;;;;;;13.45;8.00;;;30.60;99.90;;;;;;5053987;28;20055;-56
2023/08/28 07:28:50;;;;;;;11.13;7.95;;;;;;;;;;5054164;28;20029;-53
2023/08/28 07:31:16;;;;;;;11.80;7.75;;;30.80;99.90;;;;;;5054119;28;20416;-51
2023/08/28 07:33:42;;;;;;;9.20;7.82;;;30.80;99.90;;;;;;5054574;28;20075;-54
2023/08/28 07:36:08;;;;;;;9.93;8.60;;;;;;;;;;5054237;28;20067;-53
2023/08/28 07:38:35;;;;;;;11.15;8.05;;;31.10;99.90;;;;;;5053694;28;20025;-56
2023/08/28 07:41:01;;;;;;;11.50;7.97;;;31.20;99.90;;;;;;5053671;28;20044;-55
2023/08/28 07:43:26;;;;;;;15.00;8.27;;;31.40;99.90;;;;;;5054165;28;20025;-56
2023/08/28 07:45:52;;;;;;;14.85;7.90;;;31.50;99.90;;;;;;5054013;28;20021;-51
2023/08/28 07:48:18;;;;;;;12.75;8.07;;;;;;;;;;5053635;28;20075;-54
2023/08/28 07:50:45;;;;;;;9.88;7.90;;;;;;;;;;5053636;28;20033;-52
2023/08/28 07:53:12;;;;;;;13.75;8.27;;;31.90;99.90;;;;;;5053584;28;20037;-54
2023/08/28 07:55:38;;;;;;;13.50;8.43;;;;;;;;;;5054095;28;20067;-53
2023/08/28 07:58:04;;;;;;;13.30;7.93;;;;;;;;;;5053655;28;20031;-55
2023/08/28 08:00:34;;;;;;;13.18;8.43;;;32.50;99.90;;;;;;5053766;28;20112;-54
2023/08/28 08:03:00;;;;;;;14.52;8.63;;;;;;;;;;5053470;28;20029;-52
2023/08/28 08:05:26;;;;;;;12.20;7.80;;;32.90;99.90;;;;;;5053601;28;20079;-55
2023/08/28 08:07:52;;;;;;;11.27;7.95;;;33.00;98.50;;;;;;5053767;28;20484;-50
2023/08/28 08:10:18;;;;;;;15.32;7.85;;;;;;;;;;5053404;28;20107;-52
2023/08/28 08:12:45;;;;;;;15.07;8.02;;;33.30;97.70;;;;;;5018748;28;20045;-51
2023/08/28 08:15:11;;;;;;;16.73;8.55;;;33.40;97.90;;;;;;5053370;28;20025;-53
2023/08/28 08:17:37;;;;;;;13.88;8.25;;;33.50;98.00;;;;;;5053519;28;21097;-54
2023/08/28 08:20:10;;;;;;;16.27;8.05;;;33.60;97.50;;;;;;5053111;28;20033;-53
2023/08/28 08:22:40;;;;;;;12.18;6.97;;;34.00;98.30;;;;;;5019236;28;20041;-53
2023/08/28 08:25:07;;;;;;;9.43;7.57;;;;;;;;;;5053044;28;20036;-54
2023/08/28 08:27:33;;;;;;;10.68;7.40;;;34.60;98.90;;;;;;5053929;28;20376;-52
2023/08/28 08:29:59;;;;;;;12.02;6.85;;;;;;;;;;5018383;28;20036;-55
2023/08/28 08:32:25;;;;;;;11.68;7.43;;;;;;;;;;5001558;28;20033;-55
2023/08/28 08:34:56;;;;;;;18.58;7.10;;;;;;;;;;5018379;28;20041;-54
2023/08/28 08:37:22;;;;;;;13.32;6.70;;;;;;;;;;5053315;28;20399;-53
2023/08/28 08:39:48;;;;;;;12.05;7.50;;;35.40;95.70;;;;;;5053123;28;20037;-52
2023/08/28 08:42:14;;;;;;;12.93;6.78;;;35.60;95.40;;;;;;5052893;28;20530;-56
2023/08/28 08:44:40;;;;;;;13.95;7.30;;;35.60;95.30;;;;;;5053024;28;20040;-51
2023/08/28 08:47:06;;;;;;;10.75;7.05;;;35.80;96.20;;;;;;5018292;28;20476;-52
2023/08/28 08:49:32;;;;;;;10.43;7.50;;;36.10;96.00;;;;;;5052898;28;20096;-56
2023/08/28 08:52:03;;;;;;;12.20;6.32;;;36.00;95.60;;;;;;5001745;28;20473;-53
2023/08/28 08:54:34;;;;;;;11.20;7.15;;;36.30;95.40;;;;;;5053514;28;20033;-52
2023/08/28 08:57:06;;;;;;;16.77;6.95;;;36.20;95.50;;;;;;5053024;28;20045;-56
2023/08/28 08:59:33;;;;;;;15.75;7.80;;;;;;;;;;5052947;28;20033;-54
2023/08/28 09:02:02;;;;;;;14.30;7.20;;;36.80;95.60;;;;;;5052677;28;20029;-53
2023/08/28 09:04:28;;;;;;;11.32;7.20;;;;;;;;;;5052706;28;20037;-52
2023/08/28 09:06:55;;;;;;;14.25;6.93;;;37.60;95.60;;;;;;5017787;28;20041;-54
2023/08/28 09:09:21;;;;;;;12.52;7.95;;;;;;;;;;5053088;28;20029;-55
2023/08/28 09:11:48;;;;;;;15.13;7.88;;;37.70;95.40;;;;;;5018391;28;20613;-54
2023/08/28 09:14:15;;;;;;;13.52;7.03;;;37.90;95.20;;;;;;5052640;28;20104;-53
2023/08/28 09:16:41;;;;;;;11.65;7.22;;;37.80;95.40;;;;;;5017770;28;20037;-55
2023/08/28 09:19:08;;;;;;;10.75;6.88;;;37.50;94.20;;;;;;5017580;28;20057;-53
2023/08/28 09:21:37;;;;;;;14.07;6.70;;;37.30;94.60;;;;;;5052613;28;20060;-52
2023/08/28 09:24:12;;;;;;;11.63;7.43;;;37.30;94.40;;;;;;5052565;28;20384;-56
2023/08/28 09:26:38;;;;;;;13.68;7.45;;;;;;;;;;5017656;28;20037;-55
2023/08/28 09:29:07;;;;;;;16.50;7.47;;;38.40;94.40;;;;;;5052598;28;20029;-54
2023/08/28 09:31:33;;;;;;;14.52;7.50;;;38.20;93.90;;;;;;5052663;28;20075;-56
2023/08/28 09:34:00;;;;;;;36.13;9.27;;;38.40;93.80;;;;;;5001991;28;20210;-56
2023/08/28 09:36:27;;;;;;;20.63;6.63;;;38.70;94.00;;;;;;5056147;28;20033;-55
2023/08/28 09:38:59;;;;;;;14.60;6.38;;;38.60;93.30;;;;;;5055991;28;20068;-53
2023/08/28 09:41:35;;;;;;;15.95;6.50;;;;;;;;;;5055963;28;20033;-57
2023/08/28 09:44:01;;;;;;;13.13;6.88;;;;;;;;;;5055875;28;20083;-54
2023/08/28 09:46:27;;;;;;;13.20;6.80;;;;;;;;;;5021158;28;20037;-55
2023/08/28 09:48:54;;;;;;;14.45;7.00;;;;;;;;;;5054745;28;20074;-54
2023/08/28 09:51:20;;;;;;;15.85;7.10;;;;;;;;;;5056109;28;20072;-56
2023/08/28 09:53:59;;;;;;;16.90;7.25;;;38.90;99.90;;;;;;5055799;28;20049;-56
2023/08/28 09:56:30;;;;;;;12.80;7.82;;;;;;;;;;5055899;28;20029;-54
2023/08/28 09:58:58;;;;;;;18.13;7.55;;;39.50;99.90;;;;;;5056082;28;20100;-53
2023/08/28 10:01:30;;;;;;;18.77;8.27;;;;;;;;;;5056041;28;20035;-54
2023/08/28 10:03:57;;;;;;;14.35;8.20;;;;;;;;;;5055735;28;20024;-57
2023/08/28 10:06:25;;;;;;;20.02;7.95;;;39.90;92.90;;;;;;5055354;28;20109;-56
2023/08/28 10:08:58;;;;;;;15.52;7.90;;;39.90;92.90;;;;;;5055725;28;20572;-56
2023/08/28 10:11:33;;;;;;;18.73;7.43;;;39.40;91.60;;;;;;5055935;28;20364;-56
2023/08/28 10:14:01;;;;;;;13.48;7.10;;;39.30;91.60;;;;;;5055283;28;20079;-54
2023/08/28 10:16:33;;;;;;;14.75;7.35;;;39.50;92.40;;;;;;5055513;28;20120;-54
2023/08/28 10:19:23;;;;;;;14.90;7.05;;;40.00;92.70;;;;;;5055132;28;20168;-54
2023/08/28 10:21:51;;;;;;;10.15;6.90;;;;;;;;;;5055348;28;20021;-54
2023/08/28 10:24:17;;;;;;;12.50;6.60;;;40.70;97.30;;;;;;5055297;28;20061;-52
2023/08/28 10:26:44;;;;;;;18.17;8.02;;;40.90;99.30;;;;;;5055539;28;20024;-58
2023/08/28 10:29:11;;;;;;;12.38;6.40;;;40.40;90.60;;;;;;5055215;28;20036;-54
2023/08/28 10:31:38;;;;;;;14.02;6.50;;;39.40;90.60;;;;;;5055333;28;20385;-53
2023/08/28 10:34:06;;;;;;;14.38;7.05;;;39.60;90.90;;;;;;5055338;28;20104;-53
2023/08/28 10:36:33;;;;;;;13.70;6.63;;;40.10;90.70;;;;;;5055347;28;20033;-51
2023/08/28 10:39:03;;;;;;;17.60;7.80;;;40.80;90.90;;;;;;5020150;28;20239;-55
2023/08/28 10:41:30;;;;;;;13.52;6.65;;;40.50;90.90;;;;;;5051773;28;20079;-55
2023/08/28 10:43:58;;;;;;;15.35;7.90;;;40.30;90.10;;;;;;5055408;28;20079;-57
2023/08/28 10:46:27;;;;;;;17.25;6.80;;;40.50;90.50;;;;;;5054772;28;20160;-56
2023/08/28 10:48:58;;;;;;;15.38;6.75;;;40.10;90.20;;;;;;5055072;28;20082;-52
2023/08/28 10:51:37;;;;;;;17.15;6.82;;;40.70;90.40;;;;;;5020166;28;20037;-54
2023/08/28 10:54:08;;;;;;;18.05;7.40;;;40.90;90.10;;;;;;5054667;28;20108;-54
2023/08/28 10:56:35;;;;;;;13.20;7.03;;;41.10;89.60;;;;;;5054651;28;20419;-54
2023/08/28 10:59:19;;;;;;;15.15;6.72;;;41.00;89.00;;;;;;5054717;28;20499;-54
2023/08/28 11:02:03;;;;;;;17.83;7.15;;;41.10;89.20;;;;;;5054612;28;20048;-53
2023/08/28 11:04:35;;;;;;;16.58;7.07;;;41.60;90.10;;;;;;5019768;28;20367;-52
2023/08/28 11:07:02;;;;;;;15.73;7.40;;;41.60;89.80;;;;;;5054559;28;20079;-54
2023/08/28 11:09:28;;;;;;;17.10;6.85;;;40.50;88.60;;;;;;5054660;28;20033;-56
2023/08/28 11:12:00;;;;;;;14.55;7.78;;;41.10;89.40;;;;;;5019406;28;20475;-55
2023/08/28 11:14:31;;;;;;;15.35;6.95;;;41.40;90.10;;;;;;5054721;28;20024;-55
2023/08/28 11:17:08;;;;;;;10.80;6.80;;;41.80;89.60;;;;;;5054417;28;20029;-56
2023/08/28 11:19:59;;;;;;;16.70;7.40;;;42.10;90.00;;;;;;5019477;28;20124;-56
2023/08/28 11:22:33;;;;;;;21.30;7.43;;;42.20;90.60;;;;;;5054290;28;20087;-55
2023/08/28 11:25:04;;;;;;;16.75;7.22;;;42.20;89.30;;;;;;5054854;28;20033;-56
2023/08/28 11:27:53;;;;;;;15.68;7.32;;;42.50;88.60;;;;;;5054646;28;20116;-53
2023/08/28 11:30:21;;;;;;;12.10;7.45;;;42.30;88.50;;;;;;5054131;28;20449;-54
2023/08/28 11:32:51;;;;;;;12.88;6.80;;;42.20;89.50;;;;;;5054082;28;20060;-56
2023/08/28 11:35:17;;;;;;;12.20;6.00;;;42.20;87.70;;;;;;5054017;28;20033;-53
2023/08/28 11:37:50;;;;;;;17.98;6.95;;;41.30;87.30;;;;;;5053804;28;20360;-57
2023/08/28 11:40:21;;;;;;;16.20;7.70;;;41.00;88.40;;;;;;5053838;28;20033;-57
2023/08/28 11:42:48;;;;;;;15.38;7.32;;;41.50;88.20;;;;;;5053776;28;20032;-54
2023/08/28 11:45:24;;;;;;;14.38;7.57;;;42.10;90.10;;;;;;5019028;28;20039;-53
2023/08/28 11:47:50;;;;;;;13.48;8.52;;;40.70;89.50;;;;;;5012094;28;20132;-52
2023/08/28 11:50:18;;;;;;;17.63;8.82;;;41.10;89.50;;;;;;5011777;28;20477;-53
2023/08/28 11:52:50;;;;;;;14.68;8.25;;;41.20;89.30;;;;;;5012058;28;20038;-56
2023/08/28 11:55:16;;;;;;;13.68;7.78;;;41.30;89.60;;;;;;4979420;28;20116;-55
2023/08/28 11:57:43;;;;;;;15.75;8.48;;;41.60;89.50;;;;;;5011046;28;20122;-54
2023/08/28 12:00:15;;;;;;;15.05;7.88;;;42.00;91.90;;;;;;5011987;28;20116;-54
2023/08/28 12:02:43;;;;;;;12.68;7.72;;;41.60;89.10;;;;;;5011817;28;20074;-57
2023/08/28 12:05:10;;;;;;;15.27;7.93;;;41.80;89.30;;;;;;5011886;28;20026;-56
2023/08/28 12:07:36;;;;;;;16.73;7.93;;;41.90;88.80;;;;;;4979147;28;20120;-55
2023/08/28 12:10:03;;;;;;;16.90;8.20;;;42.00;88.60;;;;;;5011814;28;20121;-53
2023/08/28 12:12:31;;;;;;;14.50;8.02;;;41.50;88.90;;;;;;5011449;28;20479;-52
2023/08/28 12:14:57;;;;;;;13.57;7.55;;;42.10;89.80;;;;;;5011858;28;20486;-56
2023/08/28 12:17:24;;;;;;;13.48;7.15;;;;;;;;;;5010534;28;20137;-53
2023/08/28 12:19:51;;;;;;;15.05;7.78;;;42.20;87.50;;;;;;5049908;28;20041;-56
2023/08/28 12:22:21;;;;;;;12.88;7.07;;;42.10;87.80;;;;;;5001771;28;20036;-53
2023/08/28 12:24:50;;;;;;;26.27;7.78;;;41.10;87.90;;;;;;5053104;28;20058;-55
2023/08/28 12:27:23;;;;;;;13.05;7.50;;;41.70;88.10;;;;;;5018161;28;20036;-53
2023/08/28 12:29:49;;;;;;;14.68;7.50;;;41.80;87.50;;;;;;5053178;28;20116;-55
2023/08/28 12:32:17;;;;;;;18.50;7.70;;;42.00;87.80;;;;;;5053045;28;20049;-51
2023/08/28 12:34:45;;;;;;;15.35;7.88;;;41.50;87.90;;;;;;5001746;28;20099;-56
2023/08/28 12:37:13;;;;;;;13.07;7.10;;;41.90;88.00;;;;;;5053121;28;20567;-52
2023/08/28 12:39:47;;;;;;;12.25;8.15;;;41.80;87.60;;;;;;5051181;28;20037;-57
2023/08/28 12:42:14;;;;;;;15.52;7.35;;;41.90;87.60;;;;;;5001708;28;20047;-57
2023/08/28 12:44:42;;;;;;;14.82;7.07;;;42.20;87.50;;;;;;5052824;28;20040;-51
2023/08/28 12:47:09;;;;;;;16.00;7.70;;;41.60;86.00;;;;;;5053321;28;20029;-57
2023/08/28 12:49:35;;;;;;;12.18;7.40;;;41.90;86.90;;;;;;5052575;28;20032;-54
2023/08/28 12:52:21;;;;;;;12.65;6.82;;;41.90;88.60;;;;;;5053005;28;20028;-55
2023/08/28 12:54:47;;;;;;;16.17;7.22;;;42.00;88.40;;;;;;4991604;28;20039;-53